Time;durP1;ratioP1;P1;durP2;ratioP2;P2;SDS_P1;SDS_P2;PMS_P1;PMS_P2;Temp;Humidity;BMP_temperature;BMP_pressure;BME280_temperature;BME280_humidity;BME280_pressure;Samples;Min_cycle;Max_cycle;Signal;HPM_P1;HPM_P2
2023/01/05 00:00:45;;;;;;;21.15;4.00;;;10.60;99.90;;;;;;5052932;28;20048;-50
2023/01/05 00:03:12;;;;;;;29.75;5.10;;;10.60;99.90;;;;;;5055705;28;20103;-50
2023/01/05 00:05:38;;;;;;;24.33;4.82;;;10.70;99.90;;;;;;5055439;28;20059;-53
2023/01/05 00:08:05;;;;;;;28.20;5.22;;;10.70;99.90;;;;;;5055294;28;20052;-53
2023/01/05 00:24:20;;;;;;;27.08;5.70;;;10.80;99.90;;;;;;5035232;28;20528;-49
2023/01/05 00:26:46;;;;;;;27.35;4.63;;;10.80;99.90;;;;;;5034881;28;20128;-51
2023/01/05 00:29:13;;;;;;;26.05;5.47;;;10.90;99.90;;;;;;5033674;28;20038;-53
2023/01/05 00:31:40;;;;;;;32.60;5.93;;;10.90;99.90;;;;;;5043002;28;20521;-53
2023/01/05 00:34:07;;;;;;;29.25;5.25;;;10.90;99.90;;;;;;5054828;28;20043;-51
2023/01/05 00:36:33;;;;;;;26.92;5.68;;;11.00;99.90;;;;;;5055149;28;20063;-53
2023/01/05 00:39:00;;;;;;;31.92;6.10;;;11.00;99.90;;;;;;5054637;28;20053;-52
2023/01/05 00:41:27;;;;;;;31.52;5.63;;;11.00;99.90;;;;;;5053742;28;20044;-48
2023/01/05 00:43:54;;;;;;;24.63;5.40;;;11.00;99.90;;;;;;5053625;28;20069;-54
2023/01/05 00:46:20;;;;;;;30.08;6.15;;;11.00;99.90;;;;;;5054567;28;20468;-52
2023/01/05 00:48:47;;;;;;;28.10;6.35;;;11.00;99.90;;;;;;5053429;28;20047;-53
2023/01/05 00:51:14;;;;;;;27.52;5.90;;;11.00;99.90;;;;;;5053486;28;20530;-56
2023/01/05 00:53:41;;;;;;;27.35;6.38;;;11.00;99.90;;;;;;5054637;28;20120;-52
2023/01/05 00:56:08;;;;;;;25.17;5.20;;;11.00;99.90;;;;;;5053077;28;20388;-51
2023/01/05 00:58:34;;;;;;;31.95;5.60;;;10.90;99.90;;;;;;5053409;28;20069;-51
2023/01/05 01:01:01;;;;;;;29.42;5.22;;;10.90;99.90;;;;;;5054596;28;20464;-52
2023/01/05 01:03:28;;;;;;;28.52;5.75;;;10.90;99.90;;;;;;5053202;28;20449;-51
2023/01/05 01:05:55;;;;;;;35.05;6.55;;;10.90;99.90;;;;;;5054280;28;20041;-50
2023/01/05 01:08:22;;;;;;;25.10;5.80;;;10.90;99.90;;;;;;5054328;28;20507;-52
2023/01/05 01:10:49;;;;;;;27.50;5.60;;;10.90;99.90;;;;;;5054190;28;20482;-51
2023/01/05 01:13:16;;;;;;;33.75;5.55;;;10.80;99.90;;;;;;5052777;28;20121;-51
2023/01/05 01:15:43;;;;;;;28.30;5.32;;;10.80;99.90;;;;;;5053782;28;20057;-52
2023/01/05 01:18:09;;;;;;;31.88;5.97;;;10.80;99.90;;;;;;5054420;28;20095;-52
2023/01/05 01:20:36;;;;;;;33.63;5.85;;;10.70;99.90;;;;;;5052055;28;20141;-50
2023/01/05 01:23:03;;;;;;;33.33;6.25;;;10.70;99.90;;;;;;5053314;28;20495;-55
2023/01/05 01:25:30;;;;;;;31.63;5.43;;;10.60;99.90;;;;;;5053000;28;20119;-51
2023/01/05 01:27:56;;;;;;;31.70;6.45;;;10.60;99.90;;;;;;5052987;28;20095;-51
2023/01/05 01:30:23;;;;;;;30.15;5.88;;;10.60;99.90;;;;;;5052392;28;20569;-50
2023/01/05 01:32:50;;;;;;;36.92;6.82;;;10.60;99.90;;;;;;5053874;28;20071;-49
2023/01/05 01:35:17;;;;;;;30.50;5.70;;;10.50;99.90;;;;;;5053869;28;20071;-48
2023/01/05 01:37:44;;;;;;;28.35;5.95;;;10.60;99.90;;;;;;5052543;28;20045;-49
2023/01/05 01:40:10;;;;;;;31.70;5.13;;;10.50;99.90;;;;;;5054087;28;20136;-55
2023/01/05 01:42:37;;;;;;;34.35;5.90;;;10.60;99.90;;;;;;5052388;28;20488;-52
2023/01/05 01:45:05;;;;;;;29.08;6.28;;;10.60;99.90;;;;;;5053781;28;20090;-46
2023/01/05 01:47:33;;;;;;;35.17;6.25;;;10.60;99.90;;;;;;5052276;28;20045;-54
2023/01/05 01:50:00;;;;;;;33.05;6.20;;;10.60;99.90;;;;;;5052452;28;20045;-52
2023/01/05 01:52:27;;;;;;;39.40;6.63;;;10.60;99.90;;;;;;5052486;28;20048;-55
2023/01/05 01:54:55;;;;;;;28.25;5.55;;;10.70;99.90;;;;;;5052309;28;20496;-54
2023/01/05 01:57:21;;;;;;;32.50;6.15;;;10.70;99.90;;;;;;5053469;28;20053;-52
2023/01/05 01:59:48;;;;;;;28.15;5.57;;;10.70;99.90;;;;;;5052486;28;20480;-51
2023/01/05 02:02:15;;;;;;;38.08;5.93;;;10.70;99.90;;;;;;5052519;28;20052;-54
2023/01/05 02:04:42;;;;;;;29.52;6.70;;;10.70;99.90;;;;;;5053451;28;20075;-50
2023/01/05 02:07:09;;;;;;;29.27;6.00;;;10.70;99.90;;;;;;5052075;28;20048;-50
2023/01/05 02:09:36;;;;;;;33.75;5.90;;;10.70;99.90;;;;;;5053693;28;20041;-52
2023/01/05 02:12:04;;;;;;;25.85;5.70;;;10.80;99.90;;;;;;5052327;28;20388;-54
2023/01/05 02:14:31;;;;;;;27.63;5.88;;;10.80;99.90;;;;;;5052160;28;20103;-50
2023/01/05 02:16:58;;;;;;;33.78;6.90;;;10.80;99.90;;;;;;5053071;28;20053;-51
2023/01/05 02:19:25;;;;;;;29.52;5.40;;;10.80;99.90;;;;;;5052426;28;20049;-53
2023/01/05 02:21:51;;;;;;;30.85;5.75;;;10.70;99.90;;;;;;5053603;28;20107;-48
2023/01/05 02:24:19;;;;;;;35.40;6.18;;;10.80;99.90;;;;;;5051912;28;20052;-52
2023/01/05 02:26:46;;;;;;;34.08;6.63;;;10.70;99.90;;;;;;5051305;28;20358;-52
2023/01/05 02:29:13;;;;;;;31.70;5.82;;;10.80;99.90;;;;;;5051750;28;20048;-52
2023/01/05 02:31:40;;;;;;;29.88;6.18;;;10.80;99.90;;;;;;5052604;28;20110;-52
2023/01/05 02:34:07;;;;;;;29.73;5.47;;;10.80;99.90;;;;;;5056133;28;20037;-51
2023/01/05 02:36:34;;;;;;;27.52;5.85;;;10.80;99.90;;;;;;5057502;28;20033;-49
2023/01/05 02:39:02;;;;;;;27.80;5.95;;;10.90;99.90;;;;;;5055733;28;20041;-53
2023/01/05 02:41:29;;;;;;;30.05;6.63;;;10.90;99.90;;;;;;5056179;28;20055;-55
2023/01/05 02:43:58;;;;;;;35.97;6.13;;;10.90;99.90;;;;;;5055840;28;20154;-52
2023/01/05 02:46:24;;;;;;;33.15;5.93;;;10.90;99.90;;;;;;5057137;28;20048;-49
2023/01/05 02:48:51;;;;;;;34.63;6.57;;;10.90;99.90;;;;;;5055750;28;20044;-53
2023/01/05 02:51:18;;;;;;;29.42;6.03;;;10.90;99.90;;;;;;5055699;28;20384;-49
2023/01/05 02:53:45;;;;;;;31.65;5.45;;;10.90;99.90;;;;;;5055729;28;20112;-47
2023/01/05 02:56:12;;;;;;;31.80;7.22;;;10.90;99.90;;;;;;5055741;28;20488;-49
2023/01/05 02:58:39;;;;;;;31.95;6.55;;;10.80;99.90;;;;;;5055764;28;20106;-53
2023/01/05 03:01:07;;;;;;;24.55;5.53;;;10.80;99.90;;;;;;5055723;28;20049;-48
2023/01/05 03:03:36;;;;;;;31.90;6.75;;;10.70;99.90;;;;;;5055670;28;20045;-52
2023/01/05 03:06:02;;;;;;;34.65;6.80;;;10.70;99.90;;;;;;5056611;28;20461;-47
2023/01/05 03:08:30;;;;;;;35.63;6.32;;;10.60;99.90;;;;;;5055499;28;20055;-52
2023/01/05 03:13:49;;;;;;;27.42;5.63;;;10.60;99.90;;;;;;5055630;28;20045;-55
2023/01/05 03:16:18;;;;;;;30.30;6.78;;;10.50;99.90;;;;;;5055367;28;20076;-55
2023/01/05 03:35:37;;;;;;;36.63;6.00;;;10.50;99.90;;;;;;5056206;28;20048;-56
2023/01/05 03:38:05;;;;;;;31.83;5.85;;;10.50;99.90;;;;;;5055456;28;20512;-53
2023/01/05 03:40:32;;;;;;;30.02;6.13;;;10.40;99.90;;;;;;5055896;28;20045;-54
2023/01/05 03:42:58;;;;;;;33.63;5.88;;;10.40;99.90;;;;;;5056806;28;20472;-55
2023/01/05 03:45:27;;;;;;;28.10;6.57;;;10.40;99.90;;;;;;5056103;28;20424;-54
2023/01/05 03:47:54;;;;;;;34.00;5.65;;;10.40;99.90;;;;;;5055895;28;20464;-56
2023/01/05 03:50:25;;;;;;;31.23;6.45;;;10.30;99.90;;;;;;5055720;28;20108;-56
2023/01/05 03:52:52;;;;;;;31.58;5.82;;;10.30;99.90;;;;;;5055430;28;20131;-56
2023/01/05 03:55:18;;;;;;;37.75;6.25;;;10.30;99.90;;;;;;5055832;28;20400;-56
2023/01/05 03:57:49;;;;;;;31.85;5.95;;;10.20;99.90;;;;;;5055110;28;20094;-52
2023/01/05 04:00:16;;;;;;;33.97;5.75;;;10.20;99.90;;;;;;5055289;28;20045;-56
2023/01/05 04:02:53;;;;;;;31.55;6.63;;;10.10;99.90;;;;;;5057041;28;20037;-53
2023/01/05 04:05:21;;;;;;;32.47;6.15;;;10.10;99.90;;;;;;5056117;28;20041;-56
2023/01/05 04:07:48;;;;;;;34.05;6.63;;;10.10;99.90;;;;;;5055559;28;20036;-55
2023/01/05 04:10:14;;;;;;;31.65;5.57;;;10.10;99.90;;;;;;5055785;28;20056;-56
2023/01/05 04:12:43;;;;;;;36.78;6.35;;;10.10;99.90;;;;;;5055168;28;20052;-54
2023/01/05 04:15:10;;;;;;;31.92;6.15;;;10.00;99.90;;;;;;5054920;28;20049;-56
2023/01/05 04:17:37;;;;;;;33.47;6.30;;;10.00;99.90;;;;;;5055572;28;20426;-54
2023/01/05 04:20:04;;;;;;;50.45;7.53;;;10.00;99.90;;;;;;5053891;28;20053;-52
2023/01/05 04:22:32;;;;;;;36.92;6.68;;;9.90;99.90;;;;;;5054094;28;20087;-51
2023/01/05 04:24:59;;;;;;;37.45;6.40;;;9.90;99.90;;;;;;5053832;28;20063;-51
2023/01/05 04:27:28;;;;;;;34.17;5.93;;;9.90;99.90;;;;;;5053838;28;20045;-53
2023/01/05 04:29:55;;;;;;;32.45;5.63;;;9.90;99.90;;;;;;5055016;28;20052;-49
2023/01/05 04:32:22;;;;;;;32.88;6.63;;;9.80;99.90;;;;;;5055038;28;20037;-51
2023/01/05 04:34:49;;;;;;;37.35;6.80;;;9.80;99.90;;;;;;5054854;28;20473;-49
2023/01/05 04:37:19;;;;;;;31.80;5.72;;;9.80;99.90;;;;;;5053829;28;20049;-51
2023/01/05 04:39:46;;;;;;;35.10;6.60;;;9.80;99.90;;;;;;5054006;28;20049;-49
2023/01/05 04:42:14;;;;;;;31.17;5.28;;;9.80;99.90;;;;;;5053706;28;20045;-51
2023/01/05 04:44:42;;;;;;;28.27;5.45;;;9.80;99.90;;;;;;5053517;28;20045;-53
2023/01/05 04:47:10;;;;;;;32.85;6.07;;;9.70;99.90;;;;;;5053400;28;20152;-50
2023/01/05 04:49:39;;;;;;;41.03;6.30;;;9.70;99.90;;;;;;5053412;28;20519;-48
2023/01/05 04:52:08;;;;;;;29.30;5.70;;;9.70;99.90;;;;;;5053573;28;20045;-51
2023/01/05 04:54:36;;;;;;;34.67;5.65;;;9.70;99.90;;;;;;5052784;28;20050;-48
2023/01/05 04:57:05;;;;;;;33.17;5.95;;;9.70;99.90;;;;;;5053073;28;20049;-49
2023/01/05 04:59:32;;;;;;;35.30;6.82;;;9.70;99.90;;;;;;5053105;28;20068;-54
2023/01/05 05:02:01;;;;;;;44.15;6.75;;;9.70;99.90;;;;;;5053533;28;20093;-53
2023/01/05 05:04:31;;;;;;;35.55;6.05;;;9.70;99.90;;;;;;5053291;28;20051;-49
2023/01/05 05:06:58;;;;;;;36.72;6.10;;;9.60;99.90;;;;;;5054223;28;20098;-50
2023/01/05 05:09:30;;;;;;;30.67;5.70;;;9.60;99.90;;;;;;5052796;28;20392;-52
2023/01/05 05:11:58;;;;;;;36.17;6.25;;;9.60;99.90;;;;;;5053026;28;20048;-49
2023/01/05 05:14:25;;;;;;;33.45;5.75;;;9.60;99.90;;;;;;5052965;28;20354;-49
2023/01/05 05:16:56;;;;;;;37.88;6.03;;;9.60;99.90;;;;;;5052828;28;20477;-52
2023/01/05 05:19:23;;;;;;;37.10;6.22;;;9.60;99.90;;;;;;5052787;28;20059;-49
2023/01/05 05:21:50;;;;;;;31.40;5.80;;;9.60;99.90;;;;;;5052736;28;20056;-51
2023/01/05 05:24:17;;;;;;;34.75;5.90;;;9.60;99.90;;;;;;5054353;28;20140;-50
2023/01/05 05:26:45;;;;;;;29.92;5.38;;;9.60;99.90;;;;;;5052721;28;20040;-50
2023/01/05 05:29:11;;;;;;;33.00;6.57;;;9.60;99.90;;;;;;5053666;28;20041;-53
2023/01/05 05:31:38;;;;;;;35.83;6.45;;;9.60;99.90;;;;;;5053780;28;20041;-49
2023/01/05 05:34:05;;;;;;;32.33;6.20;;;9.60;99.90;;;;;;5053927;28;20086;-51
2023/01/05 05:36:32;;;;;;;28.02;5.40;;;9.60;99.90;;;;;;5053811;28;20500;-55
2023/01/05 05:38:58;;;;;;;28.40;5.95;;;9.60;99.90;;;;;;5053849;28;20546;-52
2023/01/05 05:41:25;;;;;;;34.20;6.60;;;9.60;99.90;;;;;;5054284;28;20095;-56
2023/01/05 05:43:52;;;;;;;43.92;5.95;;;9.60;99.90;;;;;;5053936;28;20044;-53
2023/01/05 05:46:19;;;;;;;34.42;6.15;;;9.60;99.90;;;;;;5054172;28;20095;-49
2023/01/05 05:48:45;;;;;;;32.33;5.97;;;9.60;99.90;;;;;;5053794;28;20033;-49
2023/01/05 05:51:12;;;;;;;30.33;5.68;;;9.60;99.90;;;;;;5053468;28;20040;-53
2023/01/05 05:53:39;;;;;;;30.20;6.15;;;9.70;99.90;;;;;;5053965;28;20071;-53
2023/01/05 05:56:05;;;;;;;36.70;6.55;;;9.70;99.90;;;;;;5053646;28;20049;-54
2023/01/05 05:58:32;;;;;;;32.55;5.80;;;9.70;99.90;;;;;;5053746;28;20075;-50
2023/01/05 06:00:59;;;;;;;29.77;5.25;;;9.80;99.90;;;;;;5052487;28;20132;-48
2023/01/05 06:03:26;;;;;;;39.13;6.80;;;9.80;99.90;;;;;;5053900;28;20091;-55
2023/01/05 06:05:52;;;;;;;36.65;6.05;;;9.90;99.90;;;;;;5053225;28;20052;-53
2023/01/05 06:08:20;;;;;;;34.08;6.47;;;9.90;99.90;;;;;;5053486;28;20068;-51
2023/01/05 06:10:47;;;;;;;28.77;6.18;;;9.90;99.90;;;;;;5053870;28;20037;-49
2023/01/05 06:13:14;;;;;;;36.47;5.93;;;10.00;99.90;;;;;;5053631;28;20033;-53
2023/01/05 06:15:40;;;;;;;33.90;5.90;;;10.00;99.90;;;;;;5053202;28;20404;-51
2023/01/05 06:18:07;;;;;;;33.40;5.95;;;10.10;99.90;;;;;;5053294;28;20041;-54
2023/01/05 06:20:34;;;;;;;38.38;5.40;;;10.10;99.90;;;;;;5053280;28;20531;-51
2023/01/05 06:23:00;;;;;;;33.58;6.35;;;10.10;99.90;;;;;;5053381;28;20473;-49
2023/01/05 06:25:27;;;;;;;31.25;5.88;;;10.20;99.90;;;;;;5053218;28;20090;-49
2023/01/05 06:27:54;;;;;;;38.13;5.65;;;10.20;99.90;;;;;;5053344;28;20484;-51
2023/01/05 06:30:21;;;;;;;30.05;5.75;;;10.20;99.90;;;;;;5052754;28;20485;-51
2023/01/05 06:32:47;;;;;;;34.70;5.95;;;10.20;99.90;;;;;;5053188;28;20056;-49
2023/01/05 06:35:14;;;;;;;33.60;6.47;;;10.30;99.90;;;;;;5052912;28;20072;-49
2023/01/05 06:37:41;;;;;;;28.42;6.07;;;10.30;99.90;;;;;;5053240;28;20051;-55
2023/01/05 06:40:10;;;;;;;29.05;5.03;;;10.30;99.90;;;;;;5051638;28;20107;-56
2023/01/05 06:42:37;;;;;;;40.63;6.85;;;10.30;99.90;;;;;;5053461;28;20060;-52
2023/01/05 06:45:03;;;;;;;32.97;5.80;;;10.30;99.90;;;;;;5054787;28;20478;-51
2023/01/05 06:47:30;;;;;;;35.97;5.88;;;10.20;99.90;;;;;;5053013;28;20041;-47
2023/01/05 06:49:57;;;;;;;31.83;6.47;;;10.20;99.90;;;;;;5053170;28;20095;-47
2023/01/05 06:52:24;;;;;;;40.92;6.38;;;10.20;99.90;;;;;;5053140;28;20102;-54
2023/01/05 06:54:51;;;;;;;34.42;6.32;;;10.10;99.90;;;;;;5053236;28;20053;-51
2023/01/05 06:57:17;;;;;;;32.13;5.82;;;10.10;99.90;;;;;;5053162;28;20090;-51
2023/01/05 06:59:44;;;;;;;31.85;5.28;;;10.10;99.90;;;;;;5053276;28;20114;-49
2023/01/05 07:02:11;;;;;;;34.38;6.03;;;10.10;99.90;;;;;;5053242;28;20086;-53
2023/01/05 07:04:38;;;;;;;32.50;5.38;;;10.10;99.90;;;;;;5051658;28;20049;-49
2023/01/05 07:07:04;;;;;;;33.72;5.63;;;10.10;99.90;;;;;;5053003;28;20052;-50
2023/01/05 07:09:31;;;;;;;29.58;5.63;;;10.10;99.90;;;;;;5052893;28;20469;-51
2023/01/05 07:11:58;;;;;;;28.05;6.03;;;10.00;99.90;;;;;;5053309;28;20045;-51
2023/01/05 07:14:25;;;;;;;32.15;5.70;;;10.10;99.90;;;;;;5053189;28;20045;-51
2023/01/05 07:16:51;;;;;;;41.08;6.22;;;10.10;99.90;;;;;;5052109;28;20407;-52
2023/01/05 07:19:18;;;;;;;37.00;6.40;;;10.10;99.90;;;;;;5055565;28;20045;-51
2023/01/05 07:21:45;;;;;;;31.77;5.50;;;10.10;99.90;;;;;;5056106;28;20067;-51
2023/01/05 07:24:17;;;;;;;28.95;5.78;;;10.20;99.90;;;;;;5056711;28;20044;-56
2023/01/05 07:26:44;;;;;;;33.88;6.20;;;10.20;99.90;;;;;;5056128;28;20487;-49
2023/01/05 07:29:10;;;;;;;36.08;5.78;;;10.30;99.90;;;;;;5056231;28;20041;-50
2023/01/05 07:31:37;;;;;;;30.70;5.88;;;10.20;99.90;;;;;;5056177;28;20103;-47
2023/01/05 07:34:06;;;;;;;35.22;6.25;;;10.30;99.90;;;;;;5056454;28;20099;-48
2023/01/05 07:36:33;;;;;;;34.70;6.35;;;10.30;99.90;;;;;;5056333;28;20037;-51
2023/01/05 07:39:00;;;;;;;31.60;5.70;;;10.30;99.90;;;;;;5056275;28;20106;-50
2023/01/05 07:41:27;;;;;;;33.50;6.45;;;10.30;99.90;;;;;;5054700;28;20492;-50
2023/01/05 07:43:54;;;;;;;31.40;6.60;;;10.30;99.90;;;;;;5056076;28;20049;-51
2023/01/05 07:46:20;;;;;;;32.80;5.38;;;10.30;99.90;;;;;;5055989;28;20049;-54
2023/01/05 07:48:47;;;;;;;37.03;6.57;;;10.30;99.90;;;;;;5056231;28;20044;-55
2023/01/05 07:51:14;;;;;;;34.75;5.53;;;10.30;99.90;;;;;;5056224;28;20037;-52
2023/01/05 07:53:41;;;;;;;34.42;6.95;;;10.30;99.90;;;;;;5055654;28;20094;-48
2023/01/05 07:56:10;;;;;;;37.35;6.90;;;10.30;99.90;;;;;;5055609;28;20545;-54
2023/01/05 07:58:37;;;;;;;33.90;6.05;;;10.30;99.90;;;;;;5055598;28;20041;-55
2023/01/05 08:01:03;;;;;;;33.00;6.07;;;10.30;99.90;;;;;;5055603;28;20132;-53
2023/01/05 08:03:30;;;;;;;34.97;5.95;;;10.30;99.90;;;;;;5055732;28;20492;-50
2023/01/05 08:05:57;;;;;;;32.03;5.72;;;10.20;99.90;;;;;;5055258;28;20045;-46
2023/01/05 08:08:24;;;;;;;32.42;7.35;;;10.20;99.90;;;;;;5055529;28;20090;-50
2023/01/05 08:10:50;;;;;;;27.60;5.97;;;10.20;99.90;;;;;;5053890;28;20373;-45
2023/01/05 08:16:03;;;;;;;26.73;5.65;;;10.30;99.90;;;;;;5055217;28;20056;-51
2023/01/05 08:18:30;;;;;;;32.53;5.95;;;10.20;99.90;;;;;;5055182;28;20496;-50
2023/01/05 08:20:56;;;;;;;30.38;5.80;;;10.30;99.90;;;;;;5055113;28;20037;-45
2023/01/05 08:23:23;;;;;;;27.73;5.32;;;10.30;99.90;;;;;;5055482;28;20041;-46
2023/01/05 08:25:52;;;;;;;24.88;5.60;;;10.30;99.90;;;;;;5055243;28;20132;-45
2023/01/05 08:28:18;;;;;;;33.92;5.70;;;10.30;99.90;;;;;;5054974;28;20094;-48
2023/01/05 08:30:46;;;;;;;24.63;5.22;;;10.30;99.90;;;;;;5054895;28;20052;-50
2023/01/05 08:33:13;;;;;;;30.75;5.32;;;10.40;99.90;;;;;;5054943;28;20465;-49
2023/01/05 08:35:40;;;;;;;28.33;5.00;;;10.40;99.90;;;;;;5054853;28;20052;-45
2023/01/05 08:38:06;;;;;;;29.55;5.13;;;10.40;99.90;;;;;;5053660;28;20044;-48
2023/01/05 08:40:33;;;;;;;30.88;4.75;;;10.40;99.90;;;;;;5049609;28;20048;-46
2023/01/05 08:43:00;;;;;;;26.23;5.32;;;10.40;99.90;;;;;;5054392;28;20037;-47
2023/01/05 08:45:26;;;;;;;28.17;4.90;;;10.40;99.90;;;;;;5054560;28;20447;-48
2023/01/05 08:47:53;;;;;;;22.60;5.13;;;10.40;99.90;;;;;;5053916;28;20057;-47
2023/01/05 08:50:20;;;;;;;29.65;6.32;;;10.40;99.90;;;;;;5054821;28;20039;-49
2023/01/05 08:52:47;;;;;;;26.58;5.43;;;10.40;99.90;;;;;;5054919;28;20128;-46
2023/01/05 08:55:13;;;;;;;30.27;6.05;;;10.50;99.90;;;;;;5054434;28;20044;-46
2023/01/05 08:57:40;;;;;;;26.58;5.50;;;10.50;99.90;;;;;;5054254;28;20041;-46
2023/01/05 09:00:07;;;;;;;25.73;5.78;;;10.50;99.90;;;;;;5054474;28;20404;-45
2023/01/05 09:02:34;;;;;;;21.55;4.93;;;10.60;99.90;;;;;;5054677;28;20048;-46
2023/01/05 09:05:01;;;;;;;29.85;5.45;;;10.70;99.90;;;;;;5054133;28;20059;-51
2023/01/05 09:07:27;;;;;;;30.77;5.47;;;10.70;99.90;;;;;;5054498;28;20115;-55
2023/01/05 09:09:54;;;;;;;33.15;5.57;;;10.70;99.90;;;;;;5053882;28;20399;-47
2023/01/05 09:12:21;;;;;;;25.70;5.72;;;10.80;99.90;;;;;;5052727;28;20045;-49
2023/01/05 09:14:48;;;;;;;27.15;5.20;;;10.80;99.90;;;;;;5054122;28;20376;-50
2023/01/05 09:17:14;;;;;;;27.00;5.63;;;10.80;99.90;;;;;;5054027;28;20106;-50
2023/01/05 09:19:41;;;;;;;24.98;4.15;;;10.80;99.90;;;;;;5054377;28;20071;-53
2023/01/05 09:22:08;;;;;;;32.10;5.60;;;10.80;99.90;;;;;;5054323;28;20063;-54
2023/01/05 09:24:35;;;;;;;24.90;5.38;;;10.90;99.90;;;;;;5054168;28;20040;-53
2023/01/05 09:27:02;;;;;;;20.52;4.43;;;10.90;99.90;;;;;;5052793;28;20483;-55
2023/01/05 09:29:29;;;;;;;19.23;4.07;;;10.90;99.90;;;;;;5035417;28;20045;-46
2023/01/05 09:31:56;;;;;;;17.50;4.85;;;11.00;99.90;;;;;;5033738;28;20092;-48
2023/01/05 09:34:23;;;;;;;25.02;4.70;;;11.00;99.90;;;;;;5033460;28;20191;-50
2023/01/05 09:36:49;;;;;;;20.58;4.53;;;11.00;99.90;;;;;;5033255;28;20046;-51
2023/01/05 09:39:16;;;;;;;24.45;4.40;;;11.10;99.90;;;;;;5033320;28;20050;-53
2023/01/05 09:41:46;;;;;;;21.05;4.10;;;11.10;99.90;;;;;;5032958;28;20087;-48
2023/01/05 09:44:12;;;;;;;18.27;3.90;;;11.10;99.90;;;;;;5033212;28;20091;-52
2023/01/05 09:46:39;;;;;;;21.70;4.13;;;11.20;99.90;;;;;;5033270;28;20504;-48
2023/01/05 09:49:06;;;;;;;19.98;3.70;;;11.20;99.90;;;;;;5032918;28;20037;-53
2023/01/05 09:51:34;;;;;;;16.73;3.80;;;11.30;99.90;;;;;;5033111;28;20057;-51
2023/01/05 09:54:01;;;;;;;16.48;3.63;;;11.40;99.90;;;;;;5033079;28;20044;-46
2023/01/05 09:56:28;;;;;;;22.38;3.90;;;11.40;99.90;;;;;;5033360;28;20041;-48
2023/01/05 09:59:15;;;;;;;17.55;3.83;;;11.50;99.90;;;;;;5033140;28;20096;-51
2023/01/05 10:01:42;;;;;;;21.00;4.03;;;11.50;99.90;;;;;;5033152;28;20449;-50
2023/01/05 10:04:09;;;;;;;18.40;3.72;;;11.60;99.90;;;;;;5033139;28;20044;-47
2023/01/05 10:06:37;;;;;;;18.17;4.22;;;11.70;99.90;;;;;;5031820;28;20046;-47
2023/01/05 10:09:03;;;;;;;11.95;2.92;;;11.70;99.90;;;;;;5032970;28;20416;-51
2023/01/05 10:14:15;;;;;;;13.93;2.95;;;11.80;99.90;;;;;;5032919;28;20476;-49
2023/01/05 10:16:42;;;;;;;15.60;3.05;;;11.80;99.90;;;;;;5032779;28;20473;-55
2023/01/05 10:19:09;;;;;;;11.98;2.30;;;11.90;99.90;;;;;;5033056;28;20123;-53
2023/01/05 10:21:35;;;;;;;11.93;2.70;;;11.80;99.90;;;;;;5032981;28;20447;-54
2023/01/05 10:24:02;;;;;;;12.02;2.95;;;11.90;99.90;;;;;;5032704;28;20046;-48
2023/01/05 10:26:29;;;;;;;12.40;3.13;;;11.90;99.90;;;;;;5031484;28;20041;-51
2023/01/05 10:29:16;;;;;;;11.38;3.08;;;11.90;99.90;;;;;;5032766;28;20047;-52
2023/01/05 10:31:42;;;;;;;10.63;2.70;;;11.90;99.90;;;;;;5032894;28;20045;-48
2023/01/05 10:34:09;;;;;;;14.73;2.85;;;11.90;99.90;;;;;;5032580;28;20042;-53
2023/01/05 10:36:41;;;;;;;13.48;2.80;;;11.90;99.90;;;;;;5032899;28;20044;-51
2023/01/05 10:39:28;;;;;;;15.18;3.65;;;11.80;99.90;;;;;;5032576;28;20562;-48
2023/01/05 10:41:55;;;;;;;9.43;2.45;;;11.90;99.90;;;;;;5032898;28;20044;-52
2023/01/05 10:44:22;;;;;;;6.63;2.10;;;11.90;99.90;;;;;;5032480;28;20041;-53
2023/01/05 10:46:48;;;;;;;8.32;2.40;;;12.00;99.90;;;;;;5032724;28;20457;-50
2023/01/05 10:49:18;;;;;;;10.75;2.42;;;12.10;99.90;;;;;;5032840;28;20055;-49
2023/01/05 10:51:45;;;;;;;8.60;2.17;;;12.10;99.90;;;;;;5032688;28;20099;-55
2023/01/05 10:54:20;;;;;;;8.80;2.50;;;12.20;99.90;;;;;;5035716;28;20033;-55
2023/01/05 10:56:46;;;;;;;10.88;2.03;;;12.30;99.90;;;;;;5036625;28;20267;-50
2023/01/05 10:59:16;;;;;;;7.05;2.10;;;12.30;99.90;;;;;;5036450;28;20107;-50
2023/01/05 11:01:43;;;;;;;6.32;2.00;;;12.40;99.90;;;;;;5036421;28;20045;-47
2023/01/05 11:04:10;;;;;;;9.05;1.95;;;12.40;99.90;;;;;;5036438;28;20091;-50
2023/01/05 11:06:56;;;;;;;7.80;2.03;;;12.40;99.90;;;;;;5036164;28;20073;-53
2023/01/05 11:09:25;;;;;;;6.45;2.00;;;12.40;99.90;;;;;;5036545;28;20041;-49
2023/01/05 11:11:52;;;;;;;4.35;1.70;;;12.40;99.90;;;;;;5036210;28;20465;-49
2023/01/05 11:14:18;;;;;;;6.97;2.13;;;12.40;99.90;;;;;;5036105;28;20042;-51
2023/01/05 11:16:45;;;;;;;4.45;1.70;;;12.40;99.90;;;;;;5040938;28;20102;-50
2023/01/05 11:19:12;;;;;;;5.45;1.67;;;12.50;99.90;;;;;;5056259;28;20045;-52
2023/01/05 11:21:42;;;;;;;7.28;2.10;;;12.50;99.90;;;;;;5054881;28;20122;-53
2023/01/05 11:24:09;;;;;;;6.50;2.08;;;12.50;99.90;;;;;;5055922;28;20036;-53
2023/01/05 11:26:35;;;;;;;5.30;2.28;;;12.50;99.90;;;;;;5055943;28;20440;-51
2023/01/05 11:29:02;;;;;;;4.65;2.05;;;12.60;99.90;;;;;;5055868;28;20045;-50
2023/01/05 11:31:29;;;;;;;8.02;2.08;;;12.70;99.90;;;;;;5054227;28;20384;-54
2023/01/05 11:33:57;;;;;;;6.75;2.10;;;12.80;99.90;;;;;;5055460;28;20041;-53
2023/01/05 11:36:23;;;;;;;3.97;1.70;;;12.90;99.90;;;;;;5055691;28;20446;-53
2023/01/05 11:38:50;;;;;;;5.38;2.25;;;12.90;99.90;;;;;;5054328;28;20099;-47
2023/01/05 11:41:17;;;;;;;6.55;2.00;;;13.00;99.90;;;;;;5055416;28;20507;-54
2023/01/05 11:43:44;;;;;;;6.10;1.63;;;13.00;99.90;;;;;;5054835;28;20470;-49
2023/01/05 11:46:13;;;;;;;5.90;2.00;;;13.00;99.90;;;;;;5053543;28;20056;-54
2023/01/05 11:48:40;;;;;;;5.75;1.98;;;13.00;99.90;;;;;;5055616;28;20037;-49
2023/01/05 11:51:07;;;;;;;4.80;1.75;;;13.00;99.90;;;;;;5055399;28;20103;-47
2023/01/05 11:53:34;;;;;;;7.35;1.95;;;13.00;99.90;;;;;;5055435;28;20364;-49
2023/01/05 11:56:00;;;;;;;4.70;1.65;;;13.10;99.90;;;;;;5055259;28;20045;-51
2023/01/05 11:58:27;;;;;;;5.75;1.80;;;13.10;99.90;;;;;;5055399;28;20060;-51
2023/01/05 12:00:54;;;;;;;5.07;1.70;;;13.10;99.90;;;;;;5055173;28;20443;-49
2023/01/05 12:03:21;;;;;;;7.10;1.70;;;13.10;99.90;;;;;;5054587;28;20037;-48
2023/01/05 12:05:49;;;;;;;4.18;1.50;;;13.10;99.90;;;;;;5054826;28;20045;-50
2023/01/05 12:08:15;;;;;;;8.32;1.90;;;13.10;99.90;;;;;;5055003;28;20447;-50
2023/01/05 12:10:42;;;;;;;6.00;1.65;;;13.10;99.90;;;;;;5054890;28;20041;-51
2023/01/05 12:13:09;;;;;;;7.75;1.85;;;13.10;99.90;;;;;;5054690;28;20037;-54
2023/01/05 12:15:36;;;;;;;6.60;1.90;;;13.20;99.90;;;;;;5054474;28;20045;-55
2023/01/05 12:18:03;;;;;;;9.68;2.45;;;13.20;99.90;;;;;;5054624;28;20145;-50
2023/01/05 12:20:30;;;;;;;7.28;1.90;;;13.20;99.90;;;;;;5054696;28;20435;-52
2023/01/05 12:22:57;;;;;;;6.18;2.10;;;13.30;99.90;;;;;;5054438;28;20037;-47
2023/01/05 12:25:24;;;;;;;10.13;2.42;;;13.20;99.90;;;;;;5053443;28;20044;-50
2023/01/05 12:27:51;;;;;;;5.22;1.67;;;13.30;99.90;;;;;;5054574;28;20076;-51
2023/01/05 12:30:18;;;;;;;8.90;1.90;;;13.30;99.90;;;;;;5054276;28;20029;-51
2023/01/05 12:33:05;;;;;;;8.45;2.00;;;13.30;99.90;;;;;;5034376;28;20115;-50
2023/01/05 12:35:51;;;;;;;8.02;2.33;;;13.40;99.90;;;;;;5054479;28;20366;-51
2023/01/05 12:38:18;;;;;;;7.47;2.08;;;13.40;99.90;;;;;;5054456;28;20548;-50
2023/01/05 12:40:45;;;;;;;7.15;2.45;;;13.50;99.90;;;;;;5054457;28;20041;-50
2023/01/05 12:43:15;;;;;;;7.57;1.77;;;13.50;99.90;;;;;;5054356;28;20048;-54
2023/01/05 12:45:42;;;;;;;7.75;2.00;;;13.60;99.90;;;;;;5051270;28;20056;-51
2023/01/05 12:48:09;;;;;;;9.20;2.03;;;13.60;99.90;;;;;;5051737;28;20066;-47
2023/01/05 12:50:35;;;;;;;7.55;2.00;;;13.60;99.90;;;;;;5054575;28;20083;-50
2023/01/05 12:53:02;;;;;;;10.32;2.42;;;13.60;99.90;;;;;;5054403;28;20120;-57
2023/01/05 12:55:29;;;;;;;7.97;2.08;;;13.60;99.90;;;;;;5053625;28;20061;-50
2023/01/05 12:57:56;;;;;;;10.25;3.00;;;13.70;99.90;;;;;;5054732;28;20041;-52
2023/01/05 13:00:24;;;;;;;9.40;2.40;;;13.70;99.90;;;;;;5054784;28;20053;-47
2023/01/05 13:02:52;;;;;;;8.75;2.35;;;13.70;99.90;;;;;;5053595;28;20041;-52
2023/01/05 13:05:19;;;;;;;9.57;2.47;;;13.60;99.90;;;;;;5054656;28;20428;-47
2023/01/05 13:07:46;;;;;;;12.20;2.50;;;13.70;99.90;;;;;;5054323;28;20098;-49
2023/01/05 13:10:13;;;;;;;8.43;2.72;;;13.70;99.90;;;;;;5052751;28;20049;-48
2023/01/05 13:12:39;;;;;;;9.43;2.70;;;13.70;99.90;;;;;;5054245;28;20036;-48
2023/01/05 13:15:06;;;;;;;11.10;3.10;;;13.70;99.90;;;;;;5054280;28;20033;-51
2023/01/05 13:17:33;;;;;;;8.90;2.25;;;13.80;99.90;;;;;;5051142;28;20045;-54
2023/01/05 13:20:00;;;;;;;11.63;3.30;;;13.70;99.90;;;;;;5052650;28;20460;-53